createdAt,value
2019-04-29T00:02:06.109Z,5.17
2019-04-29T00:04:34.556Z,6.53
2019-04-29T00:07:03.039Z,7.77
2019-04-29T00:09:31.979Z,6.40
2019-04-29T00:12:00.735Z,7.40
2019-04-29T00:14:29.605Z,5.47
2019-04-29T00:17:08.339Z,6.47
2019-04-29T00:19:44.848Z,5.63
2019-04-29T00:22:13.632Z,8.77
2019-04-29T00:24:42.187Z,6.50
2019-04-29T00:27:10.893Z,6.23
2019-04-29T00:29:39.408Z,9.17
2019-04-29T00:32:08.652Z,6.93
2019-04-29T00:34:37.431Z,6.20
2019-04-29T00:37:16.732Z,7.37
2019-04-29T00:40:03.204Z,8.73
2019-04-29T00:43:09.349Z,6.87
2019-04-29T00:45:38.112Z,6.67
2019-04-29T00:48:06.624Z,8.07
2019-04-29T00:50:35.069Z,5.13
2019-04-29T00:53:03.664Z,8.50
2019-04-29T00:55:33.031Z,6.83
2019-04-29T00:58:01.492Z,7.60
2019-04-29T01:00:34.206Z,10.90
2019-04-29T01:03:02.651Z,10.30
2019-04-29T01:05:31.242Z,10.07
2019-04-29T01:07:59.680Z,7.67
2019-04-29T01:10:28.126Z,10.17
2019-04-29T01:12:56.855Z,8.97
2019-04-29T01:15:25.405Z,10.97
2019-04-29T01:17:53.900Z,6.83
2019-04-29T01:20:22.375Z,8.80
2019-04-29T01:22:50.827Z,8.10
2019-04-29T01:25:19.259Z,8.50
2019-04-29T01:27:53.928Z,6.93
2019-04-29T01:31:27.823Z,9.83
2019-04-29T01:34:01.173Z,11.40
2019-04-29T01:36:38.105Z,10.93
2019-04-29T01:39:07.376Z,7.30
2019-04-29T01:41:42.635Z,11.80
2019-04-29T01:44:11.199Z,6.23
2019-04-29T01:46:40.178Z,10.40
2019-04-29T01:49:08.662Z,9.50
2019-04-29T01:51:37.129Z,7.30
2019-04-29T01:54:05.576Z,6.60
2019-04-29T01:56:34.040Z,6.20
2019-04-29T01:59:02.488Z,9.70
2019-04-29T02:01:31.185Z,10.80
2019-04-29T02:03:59.695Z,8.57
2019-04-29T02:06:28.143Z,7.30
2019-04-29T02:08:57.090Z,6.53
2019-04-29T02:11:25.608Z,8.37
2019-04-29T02:13:54.433Z,9.47
2019-04-29T02:16:23.143Z,7.50
2019-04-29T02:18:51.621Z,13.20
2019-04-29T02:21:20.079Z,7.67
2019-04-29T02:23:57.829Z,9.70
2019-04-29T02:26:26.320Z,9.30
2019-04-29T02:28:54.776Z,7.47
2019-04-29T02:31:38.684Z,7.80
2019-04-29T02:34:07.416Z,7.37
2019-04-29T02:36:35.960Z,11.43
2019-04-29T02:39:34.363Z,17.73
2019-04-29T02:42:28.388Z,10.70
2019-04-29T02:45:00.146Z,12.13
2019-04-29T02:47:28.605Z,13.67
2019-04-29T02:49:57.064Z,13.70
2019-04-29T02:52:25.505Z,14.50
2019-04-29T02:54:57.615Z,20.47
2019-04-29T02:57:34.674Z,18.37
2019-04-29T03:00:12.237Z,14.60
2019-04-29T03:02:46.481Z,19.00
2019-04-29T03:05:26.664Z,20.93
2019-04-29T03:07:55.119Z,20.77
2019-04-29T03:10:23.577Z,18.80
2019-04-29T03:12:52.052Z,20.73
2019-04-29T03:15:29.243Z,23.63
2019-04-29T03:17:57.807Z,20.43
2019-04-29T03:20:31.387Z,17.33
2019-04-29T03:23:17.552Z,17.10
2019-04-29T03:25:46.019Z,17.57
2019-04-29T03:28:14.494Z,22.60
2019-04-29T03:30:43.261Z,20.63
2019-04-29T03:33:11.764Z,16.00
2019-04-29T03:35:40.468Z,20.63
2019-04-29T03:38:08.919Z,23.53
2019-04-29T03:40:37.405Z,19.83
2019-04-29T03:43:06.115Z,16.40
2019-04-29T03:45:34.608Z,21.50
2019-04-29T03:48:03.466Z,21.93
2019-04-29T03:50:32.043Z,20.30
2019-04-29T03:53:00.485Z,14.77
2019-04-29T03:55:38.837Z,22.50
2019-04-29T03:57:59.260Z,16.67
2019-04-29T04:00:27.757Z,17.80
2019-04-29T04:03:21.646Z,24.33
2019-04-29T04:05:59.651Z,17.97
2019-04-29T04:08:33.295Z,24.57
2019-04-29T04:11:02.045Z,20.20
2019-04-29T04:13:30.581Z,20.23
2019-04-29T04:15:59.190Z,28.07
2019-04-29T04:18:29.089Z,22.57
2019-04-29T04:20:57.594Z,26.20
2019-04-29T04:23:26.065Z,23.80
2019-04-29T04:25:54.602Z,23.90
2019-04-29T04:28:23.060Z,22.60
2019-04-29T04:30:51.527Z,23.70
2019-04-29T04:33:20.056Z,18.63
2019-04-29T04:35:48.535Z,21.03
2019-04-29T04:38:16.992Z,19.47
2019-04-29T04:40:55.519Z,24.63
2019-04-29T04:43:24.001Z,27.70
2019-04-29T04:45:52.950Z,21.30
2019-04-29T04:48:21.410Z,23.53
2019-04-29T04:50:49.931Z,23.60
2019-04-29T04:53:18.377Z,26.80
2019-04-29T04:55:48.783Z,26.73
2019-04-29T04:58:17.292Z,24.17
2019-04-29T05:00:45.813Z,20.80
2019-04-29T05:03:14.439Z,25.10
2019-04-29T05:05:43.022Z,22.30
2019-04-29T05:08:11.591Z,31.60
2019-04-29T05:10:40.119Z,35.00
2019-04-29T05:13:08.619Z,29.87
2019-04-29T05:15:37.148Z,29.57
2019-04-29T05:18:05.626Z,29.00
2019-04-29T05:20:34.098Z,23.40
2019-04-29T05:23:02.562Z,33.43
2019-04-29T05:25:31.966Z,35.20
2019-04-29T05:28:00.583Z,33.63
2019-04-29T05:30:29.122Z,31.73
2019-04-29T05:32:57.585Z,27.53
2019-04-29T05:35:34.831Z,27.00
2019-04-29T05:38:13.502Z,27.20
2019-04-29T05:40:47.919Z,34.43
2019-04-29T05:43:18.882Z,23.07
2019-04-29T05:45:53.970Z,23.57
2019-04-29T05:48:22.765Z,29.27
2019-04-29T05:50:56.854Z,23.03
2019-04-29T05:53:28.844Z,33.00
2019-04-29T05:55:57.334Z,27.50
2019-04-29T05:58:25.848Z,24.83
2019-04-29T06:01:08.798Z,29.50
2019-04-29T06:03:37.859Z,22.27
2019-04-29T06:06:06.712Z,26.60
2019-04-29T06:08:39.100Z,24.50
2019-04-29T06:11:05.511Z,21.60
2019-04-29T06:13:33.982Z,22.50
2019-04-29T06:16:02.593Z,27.07
2019-04-29T06:18:31.062Z,29.37
2019-04-29T06:21:08.886Z,33.13
2019-04-29T06:23:29.885Z,28.03
2019-04-29T06:25:58.361Z,28.63
2019-04-29T06:28:28.208Z,22.00
2019-04-29T06:30:57.008Z,29.10
2019-04-29T06:33:29.231Z,23.50
2019-04-29T06:35:57.174Z,28.63
2019-04-29T06:38:25.684Z,27.93
2019-04-29T06:40:54.144Z,35.27
2019-04-29T06:43:24.661Z,27.13
2019-04-29T06:45:53.178Z,28.43
2019-04-29T06:48:21.638Z,28.57
2019-04-29T06:50:50.123Z,27.50
2019-04-29T06:53:21.463Z,29.53
2019-04-29T06:55:49.081Z,26.40
2019-04-29T06:58:17.724Z,30.57
2019-04-29T07:00:46.168Z,32.00
2019-04-29T07:03:14.658Z,36.30
2019-04-29T07:05:43.129Z,35.10
2019-04-29T07:08:11.608Z,35.97
2019-04-29T07:10:40.140Z,38.83
2019-04-29T07:13:08.712Z,30.63
2019-04-29T07:15:37.196Z,24.30
2019-04-29T07:18:05.712Z,29.63
2019-04-29T07:20:37.190Z,28.00
2019-04-29T07:23:04.680Z,41.47
2019-04-29T07:25:33.180Z,38.73
2019-04-29T07:28:01.679Z,31.17
2019-04-29T07:30:30.388Z,30.53
2019-04-29T07:32:58.888Z,31.57
2019-04-29T07:35:27.456Z,37.70
2019-04-29T07:37:55.976Z,33.07
2019-04-29T07:40:24.442Z,26.70
2019-04-29T07:42:53.043Z,26.90
2019-04-29T07:45:43.932Z,34.20
2019-04-29T07:48:06.315Z,30.40
2019-04-29T07:50:34.144Z,31.20
2019-04-29T07:53:02.682Z,30.97
2019-04-29T07:55:32.446Z,23.07
2019-04-29T07:58:01.147Z,26.47
2019-04-29T08:00:33.305Z,24.53
2019-04-29T08:03:03.099Z,26.17
2019-04-29T08:05:31.571Z,25.43
2019-04-29T08:08:00.297Z,26.00
2019-04-29T08:10:29.932Z,21.60
2019-04-29T08:12:59.393Z,30.13
2019-04-29T08:15:27.866Z,25.53
2019-04-29T08:18:06.323Z,30.40
2019-04-29T08:20:27.199Z,23.03
2019-04-29T08:22:58.423Z,25.57
2019-04-29T08:25:27.078Z,24.50
2019-04-29T08:27:55.645Z,26.37
2019-04-29T08:30:24.116Z,21.20
2019-04-29T08:32:52.623Z,26.13
2019-04-29T08:35:21.142Z,21.93
2019-04-29T08:37:49.646Z,22.63
2019-04-29T08:40:18.151Z,20.47
2019-04-29T08:42:51.966Z,23.80
2019-04-29T08:45:26.236Z,17.77
2019-04-29T08:47:54.731Z,20.53
2019-04-29T08:50:23.265Z,16.50
2019-04-29T08:52:51.826Z,19.77
2019-04-29T08:55:20.592Z,17.70
2019-04-29T08:57:49.038Z,16.80
2019-04-29T09:00:17.785Z,20.23
2019-04-29T09:02:49.240Z,15.57
2019-04-29T09:05:16.961Z,12.87
2019-04-29T09:07:45.434Z,14.70
2019-04-29T09:10:13.938Z,13.00
2019-04-29T09:12:42.706Z,15.80
2019-04-29T09:15:11.396Z,16.60
2019-04-29T09:17:39.913Z,14.80
2019-04-29T09:20:08.646Z,12.60
2019-04-29T09:22:39.260Z,10.43
2019-04-29T09:25:21.356Z,13.03
2019-04-29T09:27:51.201Z,15.63
2019-04-29T09:30:19.744Z,17.27
2019-04-29T09:32:48.255Z,15.83
2019-04-29T09:35:16.953Z,15.20
2019-04-29T09:37:45.446Z,14.93
2019-04-29T09:40:16.176Z,14.47
2019-04-29T09:42:57.115Z,17.20
2019-04-29T09:45:34.288Z,16.90
2019-04-29T09:48:02.912Z,13.87
2019-04-29T09:50:34.288Z,11.70
2019-04-29T09:53:01.928Z,14.13
2019-04-29T09:55:30.390Z,13.57
2019-04-29T09:57:58.886Z,15.47
2019-04-29T10:00:43.240Z,14.03
2019-04-29T10:03:33.744Z,18.47
2019-04-29T10:06:12.437Z,17.60
2019-04-29T10:08:40.420Z,19.60
2019-04-29T10:11:08.976Z,19.70
2019-04-29T10:13:37.430Z,19.17
2019-04-29T10:16:37.232Z,23.17
2019-04-29T10:19:20.646Z,23.63
2019-04-29T10:21:49.158Z,18.63
2019-04-29T10:24:17.636Z,20.67
2019-04-29T10:26:46.364Z,19.63
2019-04-29T10:29:18.594Z,20.23
2019-04-29T10:31:47.284Z,20.93
2019-04-29T10:34:16.232Z,21.67
2019-04-29T10:36:44.711Z,29.23
2019-04-29T10:39:29.092Z,24.07
2019-04-29T10:41:58.667Z,24.10
2019-04-29T10:44:41.268Z,31.57
2019-04-29T10:47:35.583Z,24.80
2019-04-29T10:50:10.553Z,24.53
2019-04-29T10:52:40.246Z,25.30
2019-04-29T10:55:08.951Z,24.53
2019-04-29T10:57:37.466Z,25.37
2019-04-29T11:00:16.905Z,30.87
2019-04-29T11:02:48.836Z,33.47
2019-04-29T11:06:00.410Z,24.77
2019-04-29T11:08:43.262Z,24.97
2019-04-29T11:11:22.582Z,26.90
2019-04-29T11:13:48.256Z,29.83
2019-04-29T11:16:13.405Z,25.53
2019-04-29T11:18:42.163Z,31.93
2019-04-29T11:21:10.606Z,28.10
2019-04-29T11:23:45.142Z,28.73
2019-04-29T11:26:28.536Z,33.43
2019-04-29T11:28:58.370Z,32.77
2019-04-29T11:31:26.839Z,27.87
2019-04-29T11:34:05.358Z,32.67
2019-04-29T11:36:34.936Z,30.87
2019-04-29T11:39:02.890Z,26.43
2019-04-29T11:41:31.662Z,28.07
2019-04-29T11:44:00.184Z,32.43
2019-04-29T11:46:28.872Z,29.50
2019-04-29T11:48:59.214Z,29.63
2019-04-29T11:51:57.033Z,29.63
2019-04-29T11:54:12.721Z,27.87
2019-04-29T11:56:39.912Z,28.67
2019-04-29T11:59:29.988Z,30.07
2019-04-29T12:02:16.251Z,28.20
2019-04-29T12:04:49.028Z,29.80
2019-04-29T12:07:21.025Z,27.87
2019-04-29T12:09:47.847Z,32.67
2019-04-29T12:12:16.506Z,32.70
2019-04-29T12:14:54.306Z,24.77
2019-04-29T12:17:32.599Z,27.93
2019-04-29T12:20:07.087Z,27.93
2019-04-29T12:22:47.742Z,31.60
2019-04-29T12:25:05.816Z,29.23
2019-04-29T12:27:34.522Z,31.67
2019-04-29T12:30:04.753Z,29.40
2019-04-29T12:32:46.100Z,30.03
2019-04-29T12:35:34.019Z,29.77
2019-04-29T12:38:16.709Z,27.03
2019-04-29T12:41:04.223Z,26.80
2019-04-29T12:43:54.103Z,25.10
2019-04-29T12:46:25.995Z,18.70
2019-04-29T12:48:54.731Z,25.67
2019-04-29T12:51:23.196Z,29.67
2019-04-29T12:53:51.807Z,29.27
2019-04-29T12:56:27.629Z,25.97
2019-04-29T12:58:59.589Z,19.87
2019-04-29T13:01:50.985Z,23.00
2019-04-29T13:04:28.117Z,27.80
2019-04-29T13:07:18.667Z,21.87
2019-04-29T13:09:47.853Z,27.10
2019-04-29T13:12:19.338Z,27.73
2019-04-29T13:15:02.641Z,29.10
2019-04-29T13:17:32.779Z,21.43
2019-04-29T13:20:11.172Z,23.13
2019-04-29T13:22:37.308Z,24.83
2019-04-29T13:25:06.377Z,20.07
2019-04-29T13:27:34.876Z,27.60
2019-04-29T13:30:07.291Z,22.83
2019-04-29T13:32:35.808Z,23.03
2019-04-29T13:35:10.487Z,23.30
2019-04-29T13:37:38.053Z,22.17
2019-04-29T13:40:07.862Z,25.93
2019-04-29T13:42:36.347Z,21.53
2019-04-29T13:45:12.152Z,23.00
2019-04-29T13:47:53.204Z,20.00
2019-04-29T13:50:39.434Z,27.80
2019-04-29T13:53:02.865Z,18.63
2019-04-29T13:55:47.967Z,23.37
2019-04-29T13:58:02.138Z,21.50
2019-04-29T14:00:43.250Z,22.23
2019-04-29T14:03:19.183Z,16.83
2019-04-29T14:05:47.646Z,16.30
2019-04-29T14:08:16.131Z,14.17
2019-04-29T14:10:46.753Z,13.87
2019-04-29T14:13:17.674Z,11.23
2019-04-29T14:15:45.324Z,15.73
2019-04-29T14:18:14.065Z,10.83
2019-04-29T14:20:42.499Z,10.67
2019-04-29T14:23:11.068Z,9.20
2019-04-29T14:25:39.538Z,11.23
2019-04-29T14:28:08.042Z,10.77
2019-04-29T14:30:38.868Z,10.37
2019-04-29T14:33:06.904Z,13.37
2019-04-29T14:35:50.420Z,12.23
2019-04-29T14:38:18.886Z,9.23
2019-04-29T14:40:47.397Z,15.00
2019-04-29T14:43:31.392Z,13.83
2019-04-29T14:46:02.448Z,12.63
2019-04-29T14:48:42.839Z,12.70
2019-04-29T14:51:11.855Z,12.47
2019-04-29T14:53:40.369Z,10.17
2019-04-29T14:56:08.849Z,10.93
2019-04-29T14:58:37.405Z,15.57
2019-04-29T15:01:25.409Z,9.33
2019-04-29T15:03:56.377Z,12.40
2019-04-29T15:06:28.453Z,15.47
2019-04-29T15:08:55.330Z,11.90
2019-04-29T15:11:31.988Z,10.30
2019-04-29T15:14:03.042Z,8.90
2019-04-29T15:16:40.541Z,9.80
2019-04-29T15:19:27.103Z,9.47
2019-04-29T15:22:02.507Z,11.57
2019-04-29T15:24:32.335Z,8.37
2019-04-29T15:27:01.186Z,10.17
2019-04-29T15:29:29.724Z,8.27
2019-04-29T15:31:58.219Z,10.70
2019-04-29T15:34:26.683Z,8.93
2019-04-29T15:36:55.227Z,9.27
2019-04-29T15:39:25.424Z,10.43
2019-04-29T15:41:54.796Z,9.83
2019-04-29T15:44:23.578Z,13.80
2019-04-29T15:46:52.048Z,12.30
2019-04-29T15:49:24.686Z,9.93
2019-04-29T15:51:51.073Z,7.80
2019-04-29T15:54:19.569Z,11.50
2019-04-29T15:56:48.603Z,8.23
2019-04-29T15:59:17.203Z,9.80
2019-04-29T16:01:45.656Z,15.83
2019-04-29T16:04:20.982Z,10.47
2019-04-29T16:07:08.768Z,9.07
2019-04-29T16:09:52.621Z,12.93
2019-04-29T16:12:25.376Z,7.27
2019-04-29T16:14:53.918Z,11.57
2019-04-29T16:17:22.411Z,12.30
2019-04-29T16:19:51.194Z,19.83
2019-04-29T16:22:20.437Z,10.77
2019-04-29T16:24:49.993Z,10.30
2019-04-29T16:27:18.479Z,8.10
2019-04-29T16:29:51.694Z,8.53
2019-04-29T16:32:29.149Z,10.17
2019-04-29T16:34:57.596Z,6.87
2019-04-29T16:37:31.863Z,8.00
2019-04-29T16:39:59.574Z,5.50
2019-04-29T16:42:35.887Z,7.00
2019-04-29T16:45:06.174Z,6.77
2019-04-29T16:47:35.067Z,10.67
2019-04-29T16:50:04.767Z,11.60
2019-04-29T16:52:33.414Z,9.90
2019-04-29T16:55:03.963Z,7.93
2019-04-29T16:57:32.499Z,7.43
2019-04-29T17:00:06.348Z,4.97
2019-04-29T17:02:31.277Z,3.83
2019-04-29T17:04:59.737Z,10.27
2019-04-29T17:07:28.289Z,9.07
2019-04-29T17:10:14.413Z,3.93
2019-04-29T17:12:47.743Z,4.53
2019-04-29T17:15:24.619Z,5.23
2019-04-29T17:17:46.834Z,6.00
2019-04-29T17:20:15.392Z,7.27
2019-04-29T17:22:44.821Z,6.27
2019-04-29T17:25:14.003Z,4.83
2019-04-29T17:28:11.902Z,9.27
2019-04-29T17:30:59.221Z,5.83
2019-04-29T17:33:50.205Z,6.70
2019-04-29T17:36:23.018Z,6.00
2019-04-29T17:38:47.169Z,4.20
2019-04-29T17:41:15.629Z,8.37
2019-04-29T17:43:58.062Z,5.70
2019-04-29T17:46:54.733Z,10.20
2019-04-29T17:49:35.584Z,4.43
2019-04-29T17:52:06.786Z,3.40
2019-04-29T17:54:39.690Z,6.80
2019-04-29T17:57:26.362Z,5.20
2019-04-29T18:00:00.543Z,4.03
2019-04-29T18:02:52.558Z,3.47
2019-04-29T18:05:28.176Z,3.57
2019-04-29T18:08:05.255Z,4.30
2019-04-29T18:10:39.982Z,6.43
2019-04-29T18:13:07.752Z,9.00
2019-04-29T18:15:47.462Z,7.60
2019-04-29T18:18:17.016Z,2.63
2019-04-29T18:21:02.667Z,5.63
2019-04-29T18:23:44.660Z,3.93
2019-04-29T18:26:19.133Z,3.83
2019-04-29T18:28:47.589Z,3.73
2019-04-29T18:31:16.061Z,3.77
2019-04-29T18:33:45.129Z,3.00
2019-04-29T18:36:21.814Z,8.03
2019-04-29T18:38:48.701Z,4.47
2019-04-29T18:41:16.426Z,6.13
2019-04-29T18:43:45.210Z,7.60
2019-04-29T18:46:14.839Z,3.30
2019-04-29T18:48:45.602Z,4.07
2019-04-29T18:51:15.392Z,7.70
2019-04-29T18:53:43.969Z,5.37
2019-04-29T18:56:12.444Z,3.93
2019-04-29T18:58:42.216Z,5.20
2019-04-29T19:01:11.333Z,5.13
2019-04-29T19:03:56.029Z,3.83
2019-04-29T19:06:24.727Z,3.47
2019-04-29T19:08:54.963Z,5.03
2019-04-29T19:11:31.958Z,5.03
2019-04-29T19:13:53.844Z,3.57
2019-04-29T19:16:23.281Z,6.03
2019-04-29T19:18:56.488Z,3.53
2019-04-29T19:21:23.538Z,4.50
2019-04-29T19:23:56.543Z,5.53
2019-04-29T19:26:25.872Z,4.53
2019-04-29T19:28:53.329Z,5.27
2019-04-29T19:31:21.808Z,4.00
2019-04-29T19:33:49.280Z,3.13
2019-04-29T19:36:21.671Z,3.13
2019-04-29T19:38:48.655Z,2.63
2019-04-29T19:41:18.182Z,4.63
2019-04-29T19:43:50.120Z,6.30
2019-04-29T19:46:24.284Z,4.33
2019-04-29T19:48:47.181Z,4.23
2019-04-29T19:51:18.359Z,4.00
2019-04-29T19:53:49.420Z,3.23
2019-04-29T19:56:20.998Z,2.70
2019-04-29T19:58:46.836Z,3.63
2019-04-29T20:01:26.478Z,3.13
2019-04-29T20:03:58.702Z,3.73
2019-04-29T20:06:30.327Z,3.23
2019-04-29T20:09:01.441Z,4.03
2019-04-29T20:11:32.732Z,3.13
2019-04-29T20:14:04.378Z,6.80
2019-04-29T20:16:56.221Z,4.10
2019-04-29T20:19:28.383Z,3.67
2019-04-29T20:22:03.069Z,3.57
2019-04-29T20:24:27.414Z,4.20
2019-04-29T20:26:56.209Z,3.53
2019-04-29T20:29:26.301Z,2.83
2019-04-29T20:31:56.594Z,3.30
2019-04-29T20:34:28.075Z,7.87
2019-04-29T20:36:55.826Z,3.77
2019-04-29T20:39:26.125Z,3.07
2019-04-29T20:41:56.017Z,4.87
2019-04-29T20:44:24.890Z,4.47
2019-04-29T20:47:14.221Z,4.83
2019-04-29T20:49:23.846Z,3.77
2019-04-29T20:51:57.104Z,4.07
2019-04-29T20:54:27.483Z,4.30
2019-04-29T20:57:03.038Z,5.83
2019-04-29T20:59:26.568Z,4.10
2019-04-29T21:02:11.244Z,4.43
2019-04-29T21:04:31.886Z,4.77
2019-04-29T21:07:02.448Z,3.33
2019-04-29T21:09:30.348Z,3.40
2019-04-29T21:12:20.320Z,6.67
2019-04-29T21:14:50.801Z,8.67
2019-04-29T21:17:28.741Z,9.83
2019-04-29T21:19:49.493Z,6.43
2019-04-29T21:22:22.355Z,4.63
2019-04-29T21:24:49.425Z,8.33
2019-04-29T21:27:22.563Z,5.70
2019-04-29T21:29:49.785Z,4.60
2019-04-29T21:32:18.376Z,8.37
2019-04-29T21:34:56.775Z,9.03
2019-04-29T21:37:39.940Z,5.53
2019-04-29T21:40:18.557Z,4.77
2019-04-29T21:42:48.374Z,4.63
2019-04-29T21:45:17.833Z,4.83
2019-04-29T21:47:52.922Z,8.27
2019-04-29T21:50:16.496Z,8.23
2019-04-29T21:52:46.835Z,9.93
2019-04-29T21:55:16.160Z,7.17
2019-04-29T21:57:44.873Z,5.67
2019-04-29T22:00:15.642Z,7.53
2019-04-29T22:02:47.879Z,7.30
2019-04-29T22:05:18.075Z,4.30
2019-04-29T22:07:47.331Z,6.00
2019-04-29T22:10:15.237Z,5.63
2019-04-29T22:12:43.828Z,8.30
2019-04-29T22:15:15.931Z,7.10
2019-04-29T22:17:54.406Z,19.40
2019-04-29T22:20:15.943Z,7.60
2019-04-29T22:22:45.284Z,9.17
2019-04-29T22:25:15.736Z,6.13
2019-04-29T22:27:45.108Z,6.47
2019-04-29T22:30:16.899Z,4.67
2019-04-29T22:32:46.880Z,6.23
2019-04-29T22:35:16.545Z,4.73
2019-04-29T22:37:45.484Z,7.00
2019-04-29T22:40:17.007Z,5.00
2019-04-29T22:43:04.711Z,6.40
2019-04-29T22:45:29.505Z,5.07
2019-04-29T22:48:11.972Z,4.13
2019-04-29T22:50:28.383Z,5.23
2019-04-29T22:52:57.223Z,6.83
2019-04-29T22:55:25.686Z,6.43
2019-04-29T22:57:55.453Z,4.20
2019-04-29T23:00:32.546Z,3.83
2019-04-29T23:02:57.701Z,3.77
2019-04-29T23:05:27.995Z,6.70
2019-04-29T23:08:00.160Z,4.27
2019-04-29T23:10:28.057Z,4.87
2019-04-29T23:12:57.573Z,4.13
2019-04-29T23:15:26.150Z,6.23
2019-04-29T23:17:54.815Z,5.20
2019-04-29T23:20:40.904Z,4.97
2019-04-29T23:23:15.636Z,3.53
2019-04-29T23:25:49.569Z,5.87
2019-04-29T23:28:18.037Z,4.53
2019-04-29T23:30:47.879Z,5.43
2019-04-29T23:33:22.736Z,6.87
2019-04-29T23:35:47.366Z,9.13
2019-04-29T23:38:15.934Z,9.07
2019-04-29T23:40:44.386Z,10.20
2019-04-29T23:43:12.958Z,12.03
2019-04-29T23:45:41.572Z,7.50
2019-04-29T23:48:10.034Z,8.33
2019-04-29T23:50:38.478Z,7.00
2019-04-29T23:53:07.176Z,7.47
2019-04-29T23:55:35.803Z,5.63
2019-04-29T23:58:23.520Z,6.53
